KBZN/BZN METAR and TAF weather

Enter ICAO airport designator
Station Type Date Time Source
KBZN METAR 2019/05/26 22:56 UTC NOAA

KBZN 262256Z 36006KT 10SM FEW120 16/08 A2987 RMK AO2 LTG DSNT SE AND S SLP100 T01560083


Station Type Date Time Source
KBZN Decoded METAR 2019/05/26 22:56 UTC NOAA

BOZEMAN GALLATIN FIELD, MT, United States (KBZN) 45-47N 111-09W 1361M
May 26, 2019 - 06:56 PM EDT / 2019.05.26 2256 UTC
Wind: from the N (360 degrees) at 7 MPH (6 KT):0
Visibility: 10 mile(s):0
Sky conditions: mostly clear
Weather: Lightning observed
Temperature: 60.1 F (15.6 C)
Dew Point: 46.9 F (8.3 C)
Relative Humidity: 61%
Pressure (altimeter): 29.87 in. Hg (1011 hPa)
ob: KBZN 262256Z 36006KT 10SM FEW120 16/08 A2987 RMK AO2 LTG DSNT SE AND S SLP100 T01560083
cycle: 23

Station Type Date Time Source
KBZN TAF 2019/05/26 20:34 UTC NOAA

TAF
AMD KBZN 261931Z 2620/2724 35006KT P6SM SCT060 OVC100
TEMPO 2620/2624 4SM -TSRA OVC025CB
FM270600 VRB05KT 6SM -RA OVC060
FM271000 VRB03KT P6SM VCSH BKN080
FM271800 09007KT P6SM -SHRA SCT025 BKN040

Example: see airport list